DATE METEO

AZI
Time Temp. Dewp. Hum. Bar. 1h Prec. 24h Prec.
00:09 14.3 13.7 96 1016.3 2.4240 0.9000
00:19 14.3 13.7 96 1016.3 2.9290 1.7000
00:29 14.3 13.7 96 1016.4 3.3330 2.4000
00:40 14.2 13.6 96 1016.5 3.9390 3.1000
00:49 14.1 13.5 96 1016.5 4.3430 3.9000
00:59 13.9 13.3 96 1016.4 4.6460 4.6000
01:09 13.8 13.2 96 1016.3 4.1410 5.1000
01:20 13.6 13 96 1016.5 3.5350 5.3000
01:30 13.5 12.9 96 1016.7 3.0300 5.5000
01:40 13.3 12.7 96 1016.6 2.7270 5.9000
01:50 13.1 12.3 95 1016.7 2.4240 6.4000
02:00 12.9 12.1 95 1016.7 1.9190 6.6000
02:10 12.7 11.9 95 1016.6 1.6160 6.7000
02:20 12.6 11.8 95 1016.6 1.9190 7.2000
02:31 12.4 11.6 95 1016.5 2.0200 7.5000
02:41 12.4 11.8 96 1016.6 1.7170 7.6000
02:50 12.4 11.8 96 1016.3 1.2120 7.6000
03:01 12.3 11.7 96 1016.4 1.0100 7.6000
03:11 12.2 11.4 95 1016.5 1.0100 7.7000
03:21 12 11.1 94 1016.4 0.5050 7.7000
03:31 11.9 11.1 95 1016.5 0.2020 7.7000
03:42 11.8 11 95 1016.5 0.1010 7.7000
03:51 11.8 11 95 1016.7 0.2020 7.8000
04:01 11.7 10.9 95 1016.7 0.4040 8.0000
04:11 11.6 10.8 95 1016.7 0.5050 8.2000
04:22 11.5 10.7 95 1016.7 0.7070 8.4000
04:32 11.4 10.6 95 1016.6 0.7070 8.4000
04:42 11.3 10.5 95 1016.4 0.7070 8.4000
04:52 11.3 10.5 95 1016.4 0.6060 8.4000
05:02 11.2 10.4 95 1016.5 0.4040 8.4000
05:12 11.1 10.3 95 1016.3 0.2020 8.4000
05:22 11 10.2 95 1016.2 0.0000 8.4000
05:33 11 10.2 95 1016.1 0.0000 8.4000
05:38 11 10.2 95 1016.3 0.0000 8.4000
05:52 11 10.2 95 1016.1 0.0000 8.4000
06:03 10.9 10.1 95 1016.3 0.0000 8.4000
06:13 10.9 10.1 95 1016.3 0.0000 8.4000
06:23 11 10.2 95 1016.5 0.0000 8.4000
06:33 11.1 10.3 95 1016.2 0.0000 8.4000
06:43 11.1 10.3 95 1016.6 0.0000 8.4000
06:53 11.2 10.4 95 1016.6 0.0000 8.4000
07:03 11.2 10.4 95 1016.7 0.0000 8.4000
07:13 11.2 10.4 95 1016.5 0.0000 8.4000
07:24 11.3 10.5 95 1016.7 0.0000 8.4000
07:34 11.4 10.8 96 1016.9 0.0000 8.4000
07:44 11.5 10.9 96 1017.2 0.0000 8.4000
07:54 11.6 11 96 1017.2 0.0000 8.4000
08:04 11.8 11 95 1017.2 0.0000 8.4000
08:14 12 11.2 95 1017.2 0.0000 8.4000
08:24 12.2 11.4 95 1017.4 0.0000 8.4000
08:35 12.3 11.4 94 1017.6 0.0000 8.4000
08:45 12.2 11.1 93 1017.7 0.0000 8.4000
08:54 12.1 11 93 1017.6 0.0000 8.4000
09:05 12.1 11 93 1017.7 0.0000 8.4000
09:15 12.1 11 93 1017.6 0.1010 8.5000
09:25 12.3 11.2 93 1017.8 0.1010 8.5000
09:35 12.2 10.9 92 1017.9 0.1010 8.5000
09:46 12.2 10.9 92 1017.9 0.1010 8.5000
09:55 12.2 10.9 92 1017.9 0.1010 8.5000
10:05 12.2 10.9 92 1017.9 0.0000 8.5000
10:15 12.3 11 92 1018 0.0000 8.5000
10:26 12.3 10.9 91 1018.1 0.0000 8.5000
10:36 12.5 11.2 92 1018.2 0.0000 8.5000
10:46 12.8 11.4 91 1018.2 0.0000 8.5000
10:56 13.1 11.7 91 1018.2 0.0000 8.5000
11:06 13.5 12.1 91 1018.2 0.0000 8.5000
11:16 13.8 12.2 90 1018.2 0.0000 8.5000
11:26 14.1 12.3 89 1018.2 0.0000 8.5000
11:37 14.5 12.4 87 1018.2 0.0000 8.5000
11:47 14.6 12.3 86 1018.3 0.0000 8.5000
11:56 14.9 12.4 85 1018.3 0.0000 8.5000
12:07 15.1 12.4 84 1018.3 0.0000 8.5000
12:21 15.1 12.1 82 1018.4 0.0000 8.5000
12:30 15.3 12.1 81 1018.4 0.0000 8.5000
12:41 15.3 12.1 81 1018.4 0.0000 8.5000
12:51 15.3 12.1 81 1018.4 0.0000 8.5000
13:01 15.4 12.2 81 1018.4 0.0000 8.5000
13:11 15.3 11.9 80 1018.4 0.0000 8.5000
13:21 15.3 11.7 79 1018.4 0.0000 8.5000
13:31 15.4 11.8 79 1018.4 0.0000 8.5000
13:41 15.6 12 79 1018.4 0.0000 8.5000
13:52 15.9 12.1 78 1018.3 0.0000 8.5000
14:02 16.5 12.3 76 1018.3 0.0000 8.5000
14:12 17 12.7 76 1018.2 0.0000 8.5000
14:22 17.5 13.2 76 1018.2 0.0000 8.5000
14:32 17.8 12.9 73 1018 0.0000 8.5000
14:42 18.1 12.8 71 1018.1 0.0000 8.5000
14:52 18.4 13.1 71 1018 0.0000 8.5000
15:03 18.3 13 71 1018 0.0000 8.5000
15:13 18.2 12.6 70 1018 0.0000 8.5000
15:22 18.3 12.7 70 1018 0.0000 8.5000
15:32 18.2 12.6 70 1017.8 0.0000 8.5000
15:43 17.9 12.4 70 1017.9 0.0000 8.5000
15:53 17.8 12.5 71 1017.9 0.0000 8.5000
16:03 17.5 12.4 72 1017.9 0.0000 8.5000
16:13 17.2 12.5 74 1017.8 0.0000 8.5000
16:23 17.1 12.2 73 1017.9 0.0000 8.5000
16:33 16.7 12.3 75 1017.9 0.0000 8.5000
16:43 16.3 12.7 79 1018 0.0000 8.5000
16:54 16 12.2 78 1018 0.0000 8.5000
17:04 15.8 12.4 80 1018 0.0000 8.5000
17:20 15.4 12.3 82 1018 0.0000 8.5000
17:30 15.2 12.2 82 1017.9 0.0000 8.5000
17:41 15.1 12.4 84 1018 0.0000 8.5000
17:50 15 12.5 85 1018 0.0000 8.5000
18:00 14.7 12.2 85 1017.9 0.0000 8.5000
18:11 14.6 12.1 85 1017.9 0.0000 8.5000
18:21 14.5 12 85 1018 0.0000 8.5000

STATISTICILE ZILEI

2024-06-12
TEMPERATURA
MEDIA
13.7
MAXIM
18.4
14:52
MINIM
10.9
06:03
PRESIUNEA
MEDIA
1017.4
MAXIM
1018.4
12:21
MINIM
1016.1
05:33
PUNCTUL DE ROUĂ
MEDIA
11.7
MAXIM
13.7
00:09
MINIM
10.1
06:03
UMIDITATEA
MEDIA
88
MAXIM
96
00:09
MINIM
70
15:13
PRECIPITATION
RAIN HOUR
4.6
RAIN DAY
8.5
TEMPERATURA (°C)
MINIM
10.9
MAXIM
18.4
MEDIA
13.7
PRESIUNEA (hpa)
MINIM
1016.1
MAXIM
1018.4
MEDIA
1017.4
STATIA METEO